createdAt,value
2023-02-22T00:01:51.119Z,97117.91
2023-02-22T00:04:53.793Z,97107.22
2023-02-22T00:07:58.524Z,97107.34
2023-02-22T00:11:08.330Z,97107.31
2023-02-22T00:14:09.866Z,97111.56
2023-02-22T00:17:13.490Z,97112.97
2023-02-22T00:20:19.911Z,97101.41
2023-02-22T00:23:23.021Z,97104.25
2023-02-22T00:26:24.524Z,97094.06
2023-02-22T00:29:26.500Z,97099.00
2023-02-22T00:32:27.997Z,97096.22
2023-02-22T00:35:30.971Z,97098.44
2023-02-22T00:38:32.594Z,97092.94
2023-02-22T00:41:34.361Z,97091.75
2023-02-22T00:44:37.675Z,97087.84
2023-02-22T00:47:39.209Z,97083.03
2023-02-22T00:50:40.842Z,97092.31
2023-02-22T00:53:42.847Z,97079.94
2023-02-22T00:56:44.296Z,97080.06
2023-02-22T00:59:45.777Z,97073.31
2023-02-22T01:02:50.692Z,97069.03
2023-02-22T01:05:52.483Z,97074.38
2023-02-22T01:08:53.944Z,97068.34
2023-02-22T01:11:56.789Z,97060.28
2023-02-22T01:14:58.381Z,97068.09
2023-02-22T01:18:00.033Z,97059.56
2023-02-22T01:21:02.470Z,97058.03
2023-02-22T01:24:04.122Z,97057.66
2023-02-22T01:27:05.604Z,97061.78
2023-02-22T01:30:08.526Z,97056.13
2023-02-22T01:33:12.722Z,97046.22
2023-02-22T01:36:14.128Z,97056.41
2023-02-22T01:39:17.807Z,97057.47
2023-02-22T01:42:19.430Z,97050.88
2023-02-22T01:45:35.648Z,97045.19
2023-02-22T01:49:00.603Z,97036.34
2023-02-22T01:52:05.559Z,97026.44
2023-02-22T01:55:07.277Z,97031.09
2023-02-22T01:58:09.590Z,97031.22
2023-02-22T02:01:13.170Z,97032.66
2023-02-22T02:04:20.699Z,97025.44
2023-02-22T02:07:23.945Z,97025.63
2023-02-22T02:10:28.008Z,97016.53
2023-02-22T02:13:29.797Z,97025.31
2023-02-22T02:16:41.834Z,97021.47
2023-02-22T02:19:44.634Z,97014.94
2023-02-22T02:22:54.832Z,97006.88
2023-02-22T02:26:23.740Z,97011.75
2023-02-22T02:29:43.980Z,97011.75
2023-02-22T02:32:53.974Z,97002.38
2023-02-22T02:36:18.237Z,97007.94
2023-02-22T02:39:32.044Z,97007.13
2023-02-22T02:42:38.757Z,97007.13
2023-02-22T02:45:47.540Z,97007.38
2023-02-22T02:48:58.537Z,97007.25
2023-02-22T02:52:02.732Z,97005.75
2023-02-22T02:55:04.899Z,97008.72
2023-02-22T02:58:07.946Z,97002.69
2023-02-22T03:01:12.804Z,97001.41
2023-02-22T03:04:40.386Z,97002.16
2023-02-22T03:08:03.530Z,97006.09
2023-02-22T03:11:15.291Z,96993.19
2023-02-22T03:14:42.569Z,96997.94
2023-02-22T03:17:47.704Z,96998.06
2023-02-22T03:21:39.417Z,96993.81
2023-02-22T03:24:55.898Z,96997.25
2023-02-22T03:28:03.419Z,96996.66
2023-02-22T03:31:10.912Z,96995.50
2023-02-22T03:34:22.416Z,96994.34
2023-02-22T03:37:29.067Z,96989.72
2023-02-22T03:40:39.408Z,96996.09
2023-02-22T03:43:49.393Z,96995.47
2023-02-22T03:46:56.788Z,96994.84
2023-02-22T03:50:08.943Z,96987.59
2023-02-22T03:53:11.654Z,96984.69
2023-02-22T03:56:20.675Z,96992.22
2023-02-22T03:59:25.378Z,96991.03
2023-02-22T04:02:26.896Z,96982.78
2023-02-22T04:05:28.442Z,96988.75
2023-02-22T04:08:31.686Z,96987.88
2023-02-22T04:11:34.004Z,96988.16
2023-02-22T04:14:35.909Z,96982.50
2023-02-22T04:17:37.364Z,96983.44
2023-02-22T04:20:39.747Z,96980.47
2023-02-22T04:23:45.230Z,96985.03
2023-02-22T04:26:47.309Z,96973.69
2023-02-22T04:29:50.035Z,96971.69
2023-02-22T04:32:51.906Z,96975.03
2023-02-22T04:35:57.686Z,96976.78
2023-02-22T04:39:00.271Z,96968.72
2023-02-22T04:42:03.343Z,96971.09
2023-02-22T04:45:07.908Z,96972.84
2023-02-22T04:48:10.742Z,96963.50
2023-02-22T04:51:13.033Z,96960.44
2023-02-22T04:54:22.514Z,96948.19
2023-02-22T04:57:24.356Z,96956.97
2023-02-22T05:00:26.088Z,96951.03
2023-02-22T05:03:31.888Z,96962.03
2023-02-22T05:06:33.846Z,96960.97
2023-02-22T05:09:35.291Z,96952.19
2023-02-22T05:12:37.139Z,96948.06
2023-02-22T05:15:38.651Z,96948.56
2023-02-22T05:18:40.150Z,96942.63
2023-02-22T05:21:41.689Z,96940.13
2023-02-22T05:24:43.839Z,96945.69
2023-02-22T05:27:45.274Z,96939.09
2023-02-22T05:30:46.921Z,96937.78
2023-02-22T05:33:48.510Z,96932.44
2023-02-22T05:36:50.075Z,96931.50
2023-02-22T05:39:51.557Z,96935.97
2023-02-22T05:42:53.412Z,96937.31
2023-02-22T05:45:55.631Z,96932.56
2023-02-22T05:48:57.193Z,96938.59
2023-02-22T05:51:59.835Z,96937.00
2023-02-22T05:55:01.375Z,96938.41
2023-02-22T05:58:05.729Z,96928.72
2023-02-22T06:01:07.271Z,96931.25
2023-02-22T06:04:09.195Z,96938.09
2023-02-22T06:07:10.686Z,96939.06
2023-02-22T06:10:13.416Z,96936.75
2023-02-22T06:13:14.853Z,96939.00
2023-02-22T06:16:16.426Z,96932.13
2023-02-22T06:19:17.943Z,96932.44
2023-02-22T06:22:19.942Z,96937.78
2023-02-22T06:25:24.195Z,96933.13
2023-02-22T06:28:26.328Z,96933.97
2023-02-22T06:31:27.934Z,96944.53
2023-02-22T06:34:29.455Z,96944.25
2023-02-22T06:37:31.020Z,96951.00
2023-02-22T06:40:32.491Z,96949.09
2023-02-22T06:43:33.976Z,96950.03
2023-02-22T06:46:35.431Z,96949.97
2023-02-22T06:49:37.023Z,96948.00
2023-02-22T06:52:42.676Z,96957.66
2023-02-22T06:55:44.211Z,96960.03
2023-02-22T06:58:45.686Z,96954.16
2023-02-22T07:01:47.131Z,96955.31
2023-02-22T07:04:48.569Z,96960.53
2023-02-22T07:07:52.684Z,96966.09
2023-02-22T07:10:54.346Z,96955.13
2023-02-22T07:13:55.830Z,96967.75
2023-02-22T07:16:57.313Z,96970.94
2023-02-22T07:19:58.748Z,96969.72
2023-02-22T07:23:01.228Z,96972.59
2023-02-22T07:26:05.403Z,96976.31
2023-02-22T07:29:06.951Z,96974.56
2023-02-22T07:32:08.602Z,96979.78
2023-02-22T07:35:18.957Z,96972.19
2023-02-22T07:38:21.101Z,96972.06
2023-02-22T07:41:23.042Z,96977.41
2023-02-22T07:44:24.509Z,96972.41
2023-02-22T07:47:25.950Z,96977.63
2023-02-22T07:50:30.669Z,96974.53
2023-02-22T07:53:33.563Z,96973.13
2023-02-22T07:56:35.026Z,96977.44
2023-02-22T07:59:36.613Z,96979.97
2023-02-22T08:02:38.117Z,96975.31
2023-02-22T08:05:41.540Z,96967.31
2023-02-22T08:08:43.012Z,96969.94
2023-02-22T08:11:44.462Z,96963.03
2023-02-22T08:14:45.992Z,96962.06
2023-02-22T08:17:47.494Z,96960.16
2023-02-22T08:20:51.915Z,96961.69
2023-02-22T08:23:54.268Z,96951.81
2023-02-22T08:26:55.869Z,96954.59
2023-02-22T08:29:57.380Z,96953.91
2023-02-22T08:32:59.579Z,96945.78
2023-02-22T08:36:01.781Z,96955.03
2023-02-22T08:39:03.324Z,96958.88
2023-02-22T08:42:05.112Z,96947.38
2023-02-22T08:45:07.087Z,96947.19
2023-02-22T08:48:08.544Z,96947.84
2023-02-22T08:51:09.964Z,96950.78
2023-02-22T08:54:11.560Z,96957.69
2023-02-22T08:57:13.555Z,96949.28
2023-02-22T09:00:15.796Z,96950.38
2023-02-22T09:03:17.421Z,96952.25
2023-02-22T09:06:19.427Z,96952.88
2023-02-22T09:09:21.482Z,96960.72
2023-02-22T09:12:23.074Z,96951.41
2023-02-22T09:15:25.651Z,96953.91
2023-02-22T09:18:35.974Z,96950.94
2023-02-22T09:21:45.017Z,96949.28
2023-02-22T09:24:46.496Z,96947.13
2023-02-22T09:27:53.285Z,96940.72
2023-02-22T09:30:54.817Z,96941.53
2023-02-22T09:33:56.373Z,96950.81
2023-02-22T09:36:58.177Z,96942.69
2023-02-22T09:39:59.803Z,96944.59
2023-02-22T09:43:16.826Z,96937.66
2023-02-22T09:46:45.594Z,96939.97
2023-02-22T09:50:02.299Z,96938.06
2023-02-22T09:53:08.047Z,96940.22
2023-02-22T09:56:17.406Z,96930.75
2023-02-22T09:59:27.146Z,96929.41
2023-02-22T10:02:41.335Z,96925.28
2023-02-22T10:05:48.829Z,96931.63
2023-02-22T10:08:56.348Z,96932.66
2023-02-22T10:12:02.770Z,96934.53
2023-02-22T10:15:25.988Z,96926.56
2023-02-22T10:18:42.482Z,96923.19
2023-02-22T10:21:55.618Z,96917.38
2023-02-22T10:25:04.969Z,96920.16
2023-02-22T10:28:21.671Z,96916.19
2023-02-22T10:31:28.178Z,96905.84
2023-02-22T10:34:40.595Z,96911.22
2023-02-22T10:37:42.217Z,96905.84
2023-02-22T10:40:49.381Z,96902.66
2023-02-22T10:43:50.901Z,96911.03
2023-02-22T10:46:53.314Z,96904.50
2023-02-22T10:50:00.748Z,96903.91
2023-02-22T10:53:02.731Z,96897.59
2023-02-22T10:56:18.440Z,96906.19
2023-02-22T10:59:35.770Z,96904.13
2023-02-22T11:02:37.602Z,96899.63
2023-02-22T11:05:41.151Z,96901.69
2023-02-22T11:08:43.505Z,96899.03
2023-02-22T11:11:47.646Z,96879.38
2023-02-22T11:14:49.276Z,96887.50
2023-02-22T11:17:53.769Z,96884.41
2023-02-22T11:21:04.352Z,96883.41
2023-02-22T11:24:13.000Z,96884.00
2023-02-22T11:27:32.693Z,96881.72
2023-02-22T11:30:36.062Z,96879.28
2023-02-22T11:33:38.619Z,96879.47
2023-02-22T11:36:43.290Z,96865.81
2023-02-22T11:39:45.497Z,96860.59
2023-02-22T11:42:47.218Z,96864.22
2023-02-22T11:46:03.811Z,96862.38
2023-02-22T11:49:17.302Z,96854.97
2023-02-22T11:52:34.641Z,96856.56
2023-02-22T11:55:59.823Z,96852.59
2023-02-22T11:59:15.680Z,96847.34
2023-02-22T12:02:33.641Z,96852.38
2023-02-22T12:05:37.241Z,96840.50
2023-02-22T12:08:38.738Z,96846.34
2023-02-22T12:11:50.785Z,96847.91
2023-02-22T12:15:45.597Z,96849.22
2023-02-22T12:19:09.265Z,96842.72
2023-02-22T12:22:19.437Z,96848.38
2023-02-22T12:25:31.753Z,96850.94
2023-02-22T12:28:52.177Z,96856.06
2023-02-22T12:32:16.312Z,96849.66
2023-02-22T12:35:29.775Z,96861.53
2023-02-22T12:38:46.833Z,96848.41
2023-02-22T12:41:52.766Z,96842.75
2023-02-22T12:45:00.839Z,96856.25
2023-02-22T12:48:36.389Z,96852.88
2023-02-22T12:51:54.237Z,96855.75
2023-02-22T12:55:05.339Z,96862.44
2023-02-22T12:58:15.771Z,96861.75
2023-02-22T13:01:23.386Z,96863.22
2023-02-22T13:04:25.337Z,96865.31
2023-02-22T13:08:01.833Z,96861.47
2023-02-22T13:11:28.310Z,96872.34
2023-02-22T13:14:51.344Z,96866.56
2023-02-22T13:18:06.938Z,96860.84
2023-02-22T13:21:17.767Z,96864.38
2023-02-22T13:24:31.210Z,96864.38
2023-02-22T13:27:59.302Z,96864.19
2023-02-22T13:31:19.459Z,96865.59
2023-02-22T13:34:41.281Z,96867.41
2023-02-22T13:38:01.451Z,96856.63
2023-02-22T13:41:34.977Z,96861.78
2023-02-22T13:45:04.498Z,96861.34
2023-02-22T13:48:12.146Z,96858.03
2023-02-22T13:51:37.857Z,96862.06
2023-02-22T13:54:57.336Z,96851.69
2023-02-22T13:58:03.409Z,96853.34
2023-02-22T14:01:04.869Z,96848.50
2023-02-22T14:04:29.045Z,96848.72
2023-02-22T14:07:33.705Z,96856.72
2023-02-22T14:10:55.718Z,96846.91
2023-02-22T14:14:00.870Z,96855.50
2023-02-22T14:17:25.185Z,96849.38
2023-02-22T14:20:35.157Z,96858.34
2023-02-22T14:23:41.808Z,96854.91
2023-02-22T14:26:56.380Z,96840.97
2023-02-22T14:30:00.452Z,96843.06
2023-02-22T14:33:02.563Z,96848.13
2023-02-22T14:36:04.331Z,96842.22
2023-02-22T14:39:12.506Z,96835.06
2023-02-22T14:42:19.290Z,96839.97
2023-02-22T14:45:33.258Z,96846.50
2023-02-22T14:48:43.204Z,96847.94
2023-02-22T14:51:59.539Z,96844.25
2023-02-22T14:55:25.492Z,96851.41
2023-02-22T14:58:46.700Z,96855.31
2023-02-22T15:01:58.707Z,96844.25
2023-02-22T15:05:07.739Z,96855.50
2023-02-22T15:08:09.523Z,96860.59
2023-02-22T15:11:23.495Z,96867.13
2023-02-22T15:14:26.806Z,96852.59
2023-02-22T15:17:28.611Z,96857.13
2023-02-22T15:20:30.317Z,96855.66
2023-02-22T15:23:41.764Z,96853.59
2023-02-22T15:26:59.240Z,96857.25
2023-02-22T15:30:05.895Z,96846.22
2023-02-22T15:33:16.854Z,96846.41
2023-02-22T15:36:19.773Z,96853.94
2023-02-22T15:39:33.100Z,96857.78
2023-02-22T15:42:43.885Z,96864.47
2023-02-22T15:45:46.040Z,96854.50
2023-02-22T15:49:04.681Z,96865.13
2023-02-22T15:52:26.510Z,96866.03
2023-02-22T15:55:40.404Z,96861.72
2023-02-22T15:58:44.101Z,96866.41
2023-02-22T16:01:48.599Z,96870.47
2023-02-22T16:04:59.781Z,96873.91
2023-02-22T16:08:01.540Z,96868.16
2023-02-22T16:11:12.892Z,96873.44
2023-02-22T16:14:52.310Z,96881.97
2023-02-22T16:18:02.115Z,96882.94
2023-02-22T16:21:12.864Z,96892.31
2023-02-22T16:24:26.453Z,96884.91
2023-02-22T16:27:28.185Z,96891.56
2023-02-22T16:30:35.360Z,96890.06
2023-02-22T16:33:38.754Z,96891.22
2023-02-22T16:36:44.758Z,96896.75
2023-02-22T16:39:46.266Z,96897.91
2023-02-22T16:42:48.088Z,96896.22
2023-02-22T16:45:50.074Z,96901.53
2023-02-22T16:48:51.696Z,96897.84
2023-02-22T16:51:59.756Z,96891.94
2023-02-22T16:55:02.052Z,96897.00
2023-02-22T16:58:04.586Z,96897.38
2023-02-22T17:01:06.499Z,96899.41
2023-02-22T17:04:15.695Z,96899.41
2023-02-22T17:07:24.039Z,96899.41
2023-02-22T17:10:26.749Z,96895.88
2023-02-22T17:13:29.369Z,96898.63
2023-02-22T17:16:31.243Z,96898.63
2023-02-22T17:19:32.772Z,96900.09
2023-02-22T17:22:34.212Z,96904.34
2023-02-22T17:25:38.452Z,96908.41
2023-02-22T17:28:40.529Z,96911.63
2023-02-22T17:31:42.163Z,96912.81
2023-02-22T17:34:43.640Z,96921.09
2023-02-22T17:37:47.072Z,96919.47
2023-02-22T17:40:48.732Z,96928.84
2023-02-22T17:43:50.640Z,96930.69
2023-02-22T17:46:53.172Z,96933.53
2023-02-22T17:49:57.885Z,96929.03
2023-02-22T17:53:03.325Z,96936.56
2023-02-22T17:56:10.495Z,96945.50
2023-02-22T17:59:12.004Z,96932.44
2023-02-22T18:02:13.537Z,96936.94
2023-02-22T18:05:17.853Z,96934.47
2023-02-22T18:08:19.664Z,96936.28
2023-02-22T18:11:26.145Z,96938.31
2023-02-22T18:14:27.743Z,96934.19
2023-02-22T18:17:29.241Z,96941.06
2023-02-22T18:20:31.436Z,96929.84
2023-02-22T18:23:33.898Z,96939.78
2023-02-22T18:26:35.621Z,96935.84
2023-02-22T18:29:37.314Z,96938.06
2023-02-22T18:32:39.700Z,96930.28
2023-02-22T18:35:44.888Z,96935.94
2023-02-22T18:38:46.396Z,96925.28
2023-02-22T18:41:48.744Z,96925.50
2023-02-22T18:44:51.088Z,96931.13
2023-02-22T18:47:52.599Z,96929.88
2023-02-22T18:50:54.093Z,96922.94
2023-02-22T18:54:00.286Z,96926.59
2023-02-22T18:57:02.154Z,96922.94
2023-02-22T19:00:04.697Z,96927.59
2023-02-22T19:03:07.501Z,96922.47
2023-02-22T19:06:09.790Z,96916.38
2023-02-22T19:09:11.300Z,96915.03
2023-02-22T19:12:12.827Z,96906.94
2023-02-22T19:15:14.458Z,96909.47
2023-02-22T19:18:15.994Z,96913.56
2023-02-22T19:21:19.003Z,96910.84
2023-02-22T19:24:20.881Z,96911.66
2023-02-22T19:27:22.580Z,96912.75
2023-02-22T19:30:25.271Z,96916.59
2023-02-22T19:33:27.752Z,96906.19
2023-02-22T19:36:29.371Z,96906.56
2023-02-22T19:39:32.872Z,96910.84
2023-02-22T19:42:34.596Z,96906.94
2023-02-22T19:45:39.669Z,96914.19
2023-02-22T19:48:41.248Z,96917.75
2023-02-22T19:51:42.757Z,96914.94
2023-02-22T19:54:44.892Z,96920.22
2023-02-22T19:57:47.127Z,96915.28
2023-02-22T20:00:48.650Z,96918.94
2023-02-22T20:04:10.960Z,96914.47
2023-02-22T20:07:12.456Z,96918.66
2023-02-22T20:10:15.062Z,96918.19
2023-02-22T20:13:17.087Z,96918.94
2023-02-22T20:16:18.753Z,96914.28
2023-02-22T20:19:22.388Z,96920.38
2023-02-22T20:22:23.998Z,96922.56
2023-02-22T20:25:25.527Z,96924.38
2023-02-22T20:28:27.365Z,96922.09
2023-02-22T20:31:29.565Z,96931.66
2023-02-22T20:34:33.195Z,96918.34
2023-02-22T20:37:35.502Z,96923.63
2023-02-22T20:40:37.445Z,96928.91
2023-02-22T20:43:39.664Z,96917.44
2023-02-22T20:46:42.837Z,96919.88
2023-02-22T20:49:44.403Z,96922.06
2023-02-22T20:52:45.829Z,96924.06
2023-02-22T20:55:51.638Z,96927.53
2023-02-22T20:58:55.358Z,96917.84
2023-02-22T21:01:57.144Z,96914.25
2023-02-22T21:04:58.741Z,96926.78
2023-02-22T21:08:00.950Z,96930.25
2023-02-22T21:11:02.456Z,96932.88
2023-02-22T21:14:03.978Z,96923.94
2023-02-22T21:17:07.365Z,96925.94
2023-02-22T21:20:12.501Z,96919.69
2023-02-22T21:23:15.820Z,96921.69
2023-02-22T21:26:20.520Z,96930.59
2023-02-22T21:29:21.971Z,96919.22
2023-02-22T21:32:23.447Z,96928.97
2023-02-22T21:35:25.758Z,96929.94
2023-02-22T21:38:27.450Z,96926.66
2023-02-22T21:41:30.590Z,96915.34
2023-02-22T21:44:32.211Z,96928.38
2023-02-22T21:47:35.801Z,96926.72
2023-02-22T21:50:37.719Z,96922.56
2023-02-22T21:53:46.909Z,96924.72
2023-02-22T21:56:49.594Z,96914.72
2023-02-22T21:59:53.093Z,96918.16
2023-02-22T22:03:05.796Z,96912.72
2023-02-22T22:06:10.783Z,96921.44
2023-02-22T22:09:18.230Z,96917.81
2023-02-22T22:12:25.883Z,96913.19
2023-02-22T22:15:31.544Z,96918.94
2023-02-22T22:18:33.058Z,96916.16
2023-02-22T22:21:34.657Z,96909.91
2023-02-22T22:24:36.822Z,96912.38
2023-02-22T22:27:39.598Z,96910.88
2023-02-22T22:30:41.038Z,96904.97
2023-02-22T22:33:44.213Z,96905.81
2023-02-22T22:36:46.100Z,96901.34
2023-02-22T22:39:47.608Z,96899.34
2023-02-22T22:42:49.093Z,96902.72
2023-02-22T22:45:50.602Z,96899.13
2023-02-22T22:48:52.096Z,96896.03
2023-02-22T22:51:54.481Z,96891.91
2023-02-22T22:54:55.967Z,96899.47
2023-02-22T22:57:58.797Z,96897.47
2023-02-22T23:01:06.677Z,96886.00
2023-02-22T23:04:13.196Z,96891.28
2023-02-22T23:07:14.661Z,96893.75
2023-02-22T23:10:16.377Z,96896.25
2023-02-22T23:13:17.839Z,96890.16
2023-02-22T23:16:19.791Z,96902.38
2023-02-22T23:19:21.321Z,96894.09
2023-02-22T23:22:23.038Z,96886.34
2023-02-22T23:25:24.837Z,96887.22
2023-02-22T23:28:26.261Z,96891.34
2023-02-22T23:31:32.199Z,96893.13
2023-02-22T23:34:35.869Z,96888.34
2023-02-22T23:37:39.794Z,96882.88
2023-02-22T23:40:42.353Z,96896.03
2023-02-22T23:43:45.244Z,96884.38
2023-02-22T23:51:10.544Z,96888.34
2023-02-22T23:54:14.915Z,96904.88
2023-02-22T23:57:17.567Z,96896.63
